• pl
  • eng

Awiacja
WIADOMOŚCI
ostatnia aktualizacja: 04.09.2019 09:33
Uprzejmie informujemy, że od dnia 2.09.2019 jest dostępna w formie testowej prognoza GAFOR. Prosimy o przesyłanie na adres gafor@imgw.pl uwag i sugestii, które przyczynią się do rozwoju produktu.

W dniach 1-5 października br. IMGW-PIB we współpracy z Lotniskiem Leszno, organizuje XVIII edycję Szkoły Meteorologii Lotniczej. Temat tegorocznej edycji Szkoły to "Meteorologia, a bezpieczne planowanie lotu". Szczegółowe informacje znajdują się w poniższym linku. Serdecznie zapraszamy do udziału w Szkole Meteorologii Lotniczej.

Kliknij na pogrubioną czerwoną nazwę, aby odkodować depeszę. 01:31 22.09.2019
  • WIND
  • SIGNIFICANT EURO
  • SIGNIFICANT
  • SIGMET
  • AIRMET
  • TAF FC
  • TAF FT
  • METAR GG30
  • METAR GG00


METAR EPBY 212330Z VRB02KT CAVOK 06/06 Q1020 =

METAR EPGD 212330Z 24003KT CAVOK 10/09 Q1018 =

METAR EPKK 212330Z VRB01KT CAVOK 07/06 Q1022 =

METAR EPKT 212330Z 22007KT CAVOK 10/04 Q1021 =

METAR EPLB 212330Z 28004KT CAVOK 08/07 Q1020 =

METAR EPLL 212330Z 07002KT 1600 MIFG BR NSC 07/06 Q1020 =

METAR EPMO 212330Z 21003KT 6000 0500W BCFG NSC 08/08 Q1020 =

METAR EPPO 212330Z 13003KT 8000 NSC 08/07 Q1020 =

METAR EPRA 212330Z NIL=

METAR EPRZ 212330Z 23005KT CAVOK 09/06 Q1022 =

METAR EPSC 212330Z 12006KT 9999 MIFG NSC 10/10 Q1019 =

METAR EPSY 212330Z NIL=

METAR EPWA 212330Z VRB02KT 9000 MIFG NSC 07/07 Q1020 TEMPO 4000 BR=

METAR EPWR 212330Z VRB01KT CAVOK 07/06 Q1020 =

METAR EPZG 212330Z NIL=
Awiacja.imgw.pl jest pogodowym serwisem informacyjnym
Instytutu Meteorologii i Gospodarki Wodnej Państwowego Instytutu Badawczego.
Copyright IMGW PIB 2009-2011© Wszelkie prawa zastrzeżone.